sensor_id;sensor_type;location;lat;lon;timestamp;temperature;humidity
36990;DHT22;22898;52.102;5.776;2023-03-04T00:01:22;10.80;94.90
36990;DHT22;22898;52.102;5.776;2023-03-04T00:03:49;10.60;95.60
36990;DHT22;22898;52.102;5.776;2023-03-04T00:06:18;10.80;95.20
36990;DHT22;22898;52.102;5.776;2023-03-04T00:08:43;11.00;95.20
36990;DHT22;22898;52.102;5.776;2023-03-04T00:11:09;10.40;95.80
36990;DHT22;22898;52.102;5.776;2023-03-04T00:13:34;9.80;97.00
36990;DHT22;22898;52.102;5.776;2023-03-04T00:16:00;10.20;96.70
36990;DHT22;22898;52.102;5.776;2023-03-04T00:18:28;10.70;95.90
36990;DHT22;22898;52.102;5.776;2023-03-04T00:20:54;11.30;95.00
36990;DHT22;22898;52.102;5.776;2023-03-04T00:23:21;11.00;95.00
36990;DHT22;22898;52.102;5.776;2023-03-04T00:25:46;10.40;96.00
36990;DHT22;22898;52.102;5.776;2023-03-04T00:28:12;10.00;96.70
36990;DHT22;22898;52.102;5.776;2023-03-04T00:30:38;10.30;96.40
36990;DHT22;22898;52.102;5.776;2023-03-04T00:33:04;10.10;96.80
36990;DHT22;22898;52.102;5.776;2023-03-04T00:35:29;9.80;97.40
36990;DHT22;22898;52.102;5.776;2023-03-04T00:37:55;9.90;97.10
36990;DHT22;22898;52.102;5.776;2023-03-04T00:40:20;9.70;97.40
36990;DHT22;22898;52.102;5.776;2023-03-04T00:42:46;9.60;97.70
36990;DHT22;22898;52.102;5.776;2023-03-04T00:45:11;9.50;97.70
36990;DHT22;22898;52.102;5.776;2023-03-04T00:47:38;9.60;97.50
36990;DHT22;22898;52.102;5.776;2023-03-04T00:50:04;9.60;97.70
36990;DHT22;22898;52.102;5.776;2023-03-04T00:52:30;9.70;97.50
36990;DHT22;22898;52.102;5.776;2023-03-04T00:54:55;9.50;97.80
36990;DHT22;22898;52.102;5.776;2023-03-04T00:57:21;9.60;98.20
36990;DHT22;22898;52.102;5.776;2023-03-04T00:59:46;9.60;97.30
36990;DHT22;22898;52.102;5.776;2023-03-04T01:02:12;9.50;98.00
36990;DHT22;22898;52.102;5.776;2023-03-04T01:04:39;9.40;98.20
36990;DHT22;22898;52.102;5.776;2023-03-04T01:07:06;9.30;98.30
36990;DHT22;22898;52.102;5.776;2023-03-04T01:09:31;9.50;98.10
36990;DHT22;22898;52.102;5.776;2023-03-04T01:11:57;9.20;98.50
36990;DHT22;22898;52.102;5.776;2023-03-04T01:14:23;9.60;97.90
36990;DHT22;22898;52.102;5.776;2023-03-04T01:16:50;9.70;97.60
36990;DHT22;22898;52.102;5.776;2023-03-04T01:19:16;9.80;97.60
36990;DHT22;22898;52.102;5.776;2023-03-04T01:21:41;10.00;97.30
36990;DHT22;22898;52.102;5.776;2023-03-04T01:24:10;10.00;97.70
36990;DHT22;22898;52.102;5.776;2023-03-04T01:26:36;9.70;98.10
36990;DHT22;22898;52.102;5.776;2023-03-04T01:29:03;9.90;97.90
36990;DHT22;22898;52.102;5.776;2023-03-04T01:31:30;9.90;97.80
36990;DHT22;22898;52.102;5.776;2023-03-04T01:33:55;10.40;97.30
36990;DHT22;22898;52.102;5.776;2023-03-04T01:36:21;10.50;96.90
36990;DHT22;22898;52.102;5.776;2023-03-04T01:38:46;10.30;97.30
36990;DHT22;22898;52.102;5.776;2023-03-04T01:41:12;10.10;97.50
36990;DHT22;22898;52.102;5.776;2023-03-04T01:43:39;9.50;97.90
36990;DHT22;22898;52.102;5.776;2023-03-04T01:46:06;9.40;98.00
36990;DHT22;22898;52.102;5.776;2023-03-04T01:48:36;9.50;97.80
36990;DHT22;22898;52.102;5.776;2023-03-04T01:51:04;10.10;96.70
36990;DHT22;22898;52.102;5.776;2023-03-04T01:53:34;9.90;97.00
36990;DHT22;22898;52.102;5.776;2023-03-04T01:56:15;9.30;98.10
36990;DHT22;22898;52.102;5.776;2023-03-04T01:58:43;9.90;97.40
36990;DHT22;22898;52.102;5.776;2023-03-04T02:01:13;10.70;95.90
36990;DHT22;22898;52.102;5.776;2023-03-04T02:03:38;10.80;95.80
36990;DHT22;22898;52.102;5.776;2023-03-04T02:06:04;10.50;96.10
36990;DHT22;22898;52.102;5.776;2023-03-04T02:08:30;10.30;96.50
36990;DHT22;22898;52.102;5.776;2023-03-04T02:10:56;10.20;96.70
36990;DHT22;22898;52.102;5.776;2023-03-04T02:13:22;10.10;96.90
36990;DHT22;22898;52.102;5.776;2023-03-04T02:15:47;9.80;97.40
36990;DHT22;22898;52.102;5.776;2023-03-04T02:18:19;9.30;98.00
36990;DHT22;22898;52.102;5.776;2023-03-04T02:26:30;9.30;98.40
36990;DHT22;22898;52.102;5.776;2023-03-04T02:28:57;9.40;98.30
36990;DHT22;22898;52.102;5.776;2023-03-04T02:31:32;10.00;97.30
36990;DHT22;22898;52.102;5.776;2023-03-04T02:34:05;10.10;97.10
36990;DHT22;22898;52.102;5.776;2023-03-04T02:36:33;10.00;97.20
36990;DHT22;22898;52.102;5.776;2023-03-04T02:39:06;10.20;96.80
36990;DHT22;22898;52.102;5.776;2023-03-04T02:41:32;10.00;97.20
36990;DHT22;22898;52.102;5.776;2023-03-04T02:43:58;9.90;97.20
36990;DHT22;22898;52.102;5.776;2023-03-04T02:46:24;9.90;97.30
36990;DHT22;22898;52.102;5.776;2023-03-04T02:48:51;10.20;96.90
36990;DHT22;22898;52.102;5.776;2023-03-04T02:51:21;10.60;96.00
36990;DHT22;22898;52.102;5.776;2023-03-04T02:53:46;10.70;96.10
36990;DHT22;22898;52.102;5.776;2023-03-04T02:56:12;10.90;95.80
36990;DHT22;22898;52.102;5.776;2023-03-04T02:58:37;10.90;95.80
36990;DHT22;22898;52.102;5.776;2023-03-04T03:01:05;11.00;95.60
36990;DHT22;22898;52.102;5.776;2023-03-04T03:03:30;11.30;95.40
36990;DHT22;22898;52.102;5.776;2023-03-04T03:05:56;11.00;95.50
36990;DHT22;22898;52.102;5.776;2023-03-04T03:08:21;11.20;95.30
36990;DHT22;22898;52.102;5.776;2023-03-04T03:10:47;11.50;94.90
36990;DHT22;22898;52.102;5.776;2023-03-04T03:13:14;11.40;95.00
36990;DHT22;22898;52.102;5.776;2023-03-04T03:15:39;11.00;95.50
36990;DHT22;22898;52.102;5.776;2023-03-04T03:18:08;11.10;95.30
36990;DHT22;22898;52.102;5.776;2023-03-04T03:20:34;10.80;95.70
36990;DHT22;22898;52.102;5.776;2023-03-04T03:23:01;10.40;96.60
36990;DHT22;22898;52.102;5.776;2023-03-04T03:25:28;10.70;96.40
36990;DHT22;22898;52.102;5.776;2023-03-04T03:27:55;10.80;96.50
36990;DHT22;22898;52.102;5.776;2023-03-04T03:30:20;10.60;96.60
36990;DHT22;22898;52.102;5.776;2023-03-04T03:32:46;10.80;96.50
36990;DHT22;22898;52.102;5.776;2023-03-04T03:35:12;10.30;97.10
36990;DHT22;22898;52.102;5.776;2023-03-04T03:37:38;10.30;97.40
36990;DHT22;22898;52.102;5.776;2023-03-04T03:40:04;10.50;96.90
36990;DHT22;22898;52.102;5.776;2023-03-04T03:42:31;10.90;96.70
36990;DHT22;22898;52.102;5.776;2023-03-04T03:44:58;11.40;95.90
36990;DHT22;22898;52.102;5.776;2023-03-04T03:47:23;11.40;95.60
36990;DHT22;22898;52.102;5.776;2023-03-04T03:49:49;11.00;95.60
36990;DHT22;22898;52.102;5.776;2023-03-04T03:52:16;10.60;96.40
36990;DHT22;22898;52.102;5.776;2023-03-04T03:54:42;10.90;96.00
36990;DHT22;22898;52.102;5.776;2023-03-04T03:57:09;10.70;96.10
36990;DHT22;22898;52.102;5.776;2023-03-04T03:59:35;10.90;96.00
36990;DHT22;22898;52.102;5.776;2023-03-04T04:02:02;11.10;95.70
36990;DHT22;22898;52.102;5.776;2023-03-04T04:04:29;11.40;95.00
36990;DHT22;22898;52.102;5.776;2023-03-04T04:06:55;10.80;96.00
36990;DHT22;22898;52.102;5.776;2023-03-04T04:09:23;11.10;95.70
36990;DHT22;22898;52.102;5.776;2023-03-04T04:11:48;11.60;95.00
36990;DHT22;22898;52.102;5.776;2023-03-04T04:14:14;12.10;94.30
36990;DHT22;22898;52.102;5.776;2023-03-04T04:16:40;12.00;94.20
36990;DHT22;22898;52.102;5.776;2023-03-04T04:19:08;11.80;94.50
36990;DHT22;22898;52.102;5.776;2023-03-04T04:21:35;11.20;95.60
36990;DHT22;22898;52.102;5.776;2023-03-04T04:24:01;11.10;95.60
36990;DHT22;22898;52.102;5.776;2023-03-04T04:26:29;10.50;96.60
36990;DHT22;22898;52.102;5.776;2023-03-04T04:28:55;10.10;97.20
36990;DHT22;22898;52.102;5.776;2023-03-04T04:31:20;10.10;97.50
36990;DHT22;22898;52.102;5.776;2023-03-04T04:33:46;9.80;98.00
36990;DHT22;22898;52.102;5.776;2023-03-04T04:36:16;9.80;98.20
36990;DHT22;22898;52.102;5.776;2023-03-04T04:38:43;9.80;98.20
36990;DHT22;22898;52.102;5.776;2023-03-04T04:41:22;10.10;97.50
36990;DHT22;22898;52.102;5.776;2023-03-04T04:43:47;10.10;97.60
36990;DHT22;22898;52.102;5.776;2023-03-04T04:46:14;9.90;98.10
36990;DHT22;22898;52.102;5.776;2023-03-04T04:48:40;9.80;98.50
36990;DHT22;22898;52.102;5.776;2023-03-04T04:51:05;9.50;98.50
36990;DHT22;22898;52.102;5.776;2023-03-04T04:53:31;9.10;98.90
36990;DHT22;22898;52.102;5.776;2023-03-04T04:55:56;9.10;99.10
36990;DHT22;22898;52.102;5.776;2023-03-04T04:58:23;9.50;98.50
36990;DHT22;22898;52.102;5.776;2023-03-04T05:00:49;9.70;98.20
36990;DHT22;22898;52.102;5.776;2023-03-04T05:03:16;9.40;98.90
36990;DHT22;22898;52.102;5.776;2023-03-04T05:05:41;9.40;99.00
36990;DHT22;22898;52.102;5.776;2023-03-04T05:08:07;10.00;98.20
36990;DHT22;22898;52.102;5.776;2023-03-04T05:10:32;10.00;98.00
36990;DHT22;22898;52.102;5.776;2023-03-04T05:13:01;10.00;98.30
36990;DHT22;22898;52.102;5.776;2023-03-04T05:15:27;9.90;98.70
36990;DHT22;22898;52.102;5.776;2023-03-04T05:17:52;9.30;99.80
36990;DHT22;22898;52.102;5.776;2023-03-04T05:20:19;9.10;99.90
36990;DHT22;22898;52.102;5.776;2023-03-04T05:22:45;9.50;99.90
36990;DHT22;22898;52.102;5.776;2023-03-04T05:25:11;9.70;99.70
36990;DHT22;22898;52.102;5.776;2023-03-04T05:27:37;10.10;98.70
36990;DHT22;22898;52.102;5.776;2023-03-04T05:30:03;9.40;99.90
36990;DHT22;22898;52.102;5.776;2023-03-04T05:32:28;9.50;99.90
36990;DHT22;22898;52.102;5.776;2023-03-04T05:34:57;10.30;98.90
36990;DHT22;22898;52.102;5.776;2023-03-04T05:37:22;10.80;98.30
36990;DHT22;22898;52.102;5.776;2023-03-04T05:39:48;11.00;97.20
36990;DHT22;22898;52.102;5.776;2023-03-04T05:42:13;10.30;98.20
36990;DHT22;22898;52.102;5.776;2023-03-04T05:44:39;9.80;99.10
36990;DHT22;22898;52.102;5.776;2023-03-04T05:47:04;9.60;99.50
36990;DHT22;22898;52.102;5.776;2023-03-04T05:49:30;10.20;98.90
36990;DHT22;22898;52.102;5.776;2023-03-04T05:51:55;10.60;98.00
36990;DHT22;22898;52.102;5.776;2023-03-04T05:54:21;10.50;98.30
36990;DHT22;22898;52.102;5.776;2023-03-04T05:56:49;11.00;97.30
36990;DHT22;22898;52.102;5.776;2023-03-04T05:59:16;11.20;96.90
36990;DHT22;22898;52.102;5.776;2023-03-04T06:01:48;11.30;96.90
36990;DHT22;22898;52.102;5.776;2023-03-04T06:04:13;11.30;96.40
36990;DHT22;22898;52.102;5.776;2023-03-04T06:06:39;11.00;97.30
36990;DHT22;22898;52.102;5.776;2023-03-04T06:09:04;11.00;96.90
36990;DHT22;22898;52.102;5.776;2023-03-04T06:11:30;11.40;96.60
36990;DHT22;22898;52.102;5.776;2023-03-04T06:13:56;11.60;96.30
36990;DHT22;22898;52.102;5.776;2023-03-04T06:16:25;11.90;95.40
36990;DHT22;22898;52.102;5.776;2023-03-04T06:18:52;12.10;95.50
36990;DHT22;22898;52.102;5.776;2023-03-04T06:21:19;12.20;95.30
36990;DHT22;22898;52.102;5.776;2023-03-04T06:23:44;12.20;95.10
36990;DHT22;22898;52.102;5.776;2023-03-04T06:26:11;11.70;96.00
36990;DHT22;22898;52.102;5.776;2023-03-04T06:28:40;12.00;95.40
36990;DHT22;22898;52.102;5.776;2023-03-04T06:31:07;12.20;95.10
36990;DHT22;22898;52.102;5.776;2023-03-04T06:33:33;12.10;95.30
36990;DHT22;22898;52.102;5.776;2023-03-04T06:35:58;12.30;95.20
36990;DHT22;22898;52.102;5.776;2023-03-04T06:38:30;12.60;94.70
36990;DHT22;22898;52.102;5.776;2023-03-04T06:40:55;12.40;95.00
36990;DHT22;22898;52.102;5.776;2023-03-04T06:43:21;12.40;95.00
36990;DHT22;22898;52.102;5.776;2023-03-04T06:45:48;11.80;96.20
36990;DHT22;22898;52.102;5.776;2023-03-04T06:48:13;11.30;97.00
36990;DHT22;22898;52.102;5.776;2023-03-04T06:50:39;11.00;97.90
36990;DHT22;22898;52.102;5.776;2023-03-04T06:53:05;10.70;98.40
36990;DHT22;22898;52.102;5.776;2023-03-04T06:55:32;10.40;99.00
36990;DHT22;22898;52.102;5.776;2023-03-04T06:57:57;10.50;99.30
36990;DHT22;22898;52.102;5.776;2023-03-04T07:00:23;10.70;99.00
36990;DHT22;22898;52.102;5.776;2023-03-04T07:02:49;11.00;98.40
36990;DHT22;22898;52.102;5.776;2023-03-04T07:05:14;11.30;98.40
36990;DHT22;22898;52.102;5.776;2023-03-04T07:07:41;11.70;97.90
36990;DHT22;22898;52.102;5.776;2023-03-04T07:10:08;11.70;97.60
36990;DHT22;22898;52.102;5.776;2023-03-04T07:12:35;11.60;97.70
36990;DHT22;22898;52.102;5.776;2023-03-04T07:15:01;11.60;97.80
36990;DHT22;22898;52.102;5.776;2023-03-04T07:17:28;11.30;98.40
36990;DHT22;22898;52.102;5.776;2023-03-04T07:19:53;11.10;98.70
36990;DHT22;22898;52.102;5.776;2023-03-04T07:22:20;10.70;99.70
36990;DHT22;22898;52.102;5.776;2023-03-04T07:24:46;10.40;99.90
36990;DHT22;22898;52.102;5.776;2023-03-04T07:27:11;10.60;99.90
36990;DHT22;22898;52.102;5.776;2023-03-04T07:29:37;10.40;99.90
36990;DHT22;22898;52.102;5.776;2023-03-04T07:32:06;10.20;99.90
36990;DHT22;22898;52.102;5.776;2023-03-04T07:34:32;10.40;99.90
36990;DHT22;22898;52.102;5.776;2023-03-04T07:36:58;10.90;99.90
36990;DHT22;22898;52.102;5.776;2023-03-04T07:39:23;10.80;99.90
36990;DHT22;22898;52.102;5.776;2023-03-04T07:41:50;11.10;99.90
36990;DHT22;22898;52.102;5.776;2023-03-04T07:44:17;11.00;99.90
36990;DHT22;22898;52.102;5.776;2023-03-04T07:46:43;11.50;99.90
36990;DHT22;22898;52.102;5.776;2023-03-04T07:49:15;11.50;99.90
36990;DHT22;22898;52.102;5.776;2023-03-04T07:51:40;11.50;99.90
36990;DHT22;22898;52.102;5.776;2023-03-04T07:54:06;11.40;99.90
36990;DHT22;22898;52.102;5.776;2023-03-04T07:56:33;11.20;99.90
36990;DHT22;22898;52.102;5.776;2023-03-04T07:58:59;11.20;99.90
36990;DHT22;22898;52.102;5.776;2023-03-04T08:01:34;11.40;99.90
36990;DHT22;22898;52.102;5.776;2023-03-04T08:04:02;11.80;99.60
36990;DHT22;22898;52.102;5.776;2023-03-04T08:06:28;11.70;99.60
36990;DHT22;22898;52.102;5.776;2023-03-04T08:09:00;11.70;99.30
36990;DHT22;22898;52.102;5.776;2023-03-04T08:11:27;11.40;99.90
36990;DHT22;22898;52.102;5.776;2023-03-04T08:13:53;11.20;99.90
36990;DHT22;22898;52.102;5.776;2023-03-04T08:16:20;10.90;99.90
36990;DHT22;22898;52.102;5.776;2023-03-04T08:18:50;10.60;99.90
36990;DHT22;22898;52.102;5.776;2023-03-04T08:21:17;10.70;99.90
36990;DHT22;22898;52.102;5.776;2023-03-04T08:23:45;10.80;99.90
36990;DHT22;22898;52.102;5.776;2023-03-04T08:26:27;11.00;99.90
36990;DHT22;22898;52.102;5.776;2023-03-04T08:28:54;11.50;99.90
36990;DHT22;22898;52.102;5.776;2023-03-04T08:31:21;11.10;99.90
36990;DHT22;22898;52.102;5.776;2023-03-04T08:33:46;11.10;99.90
36990;DHT22;22898;52.102;5.776;2023-03-04T08:36:14;11.10;99.90
36990;DHT22;22898;52.102;5.776;2023-03-04T08:38:39;11.10;99.90
36990;DHT22;22898;52.102;5.776;2023-03-04T08:41:06;11.10;99.90
36990;DHT22;22898;52.102;5.776;2023-03-04T08:43:33;11.40;99.90
36990;DHT22;22898;52.102;5.776;2023-03-04T08:46:03;11.00;99.90
36990;DHT22;22898;52.102;5.776;2023-03-04T08:48:33;10.50;99.90
36990;DHT22;22898;52.102;5.776;2023-03-04T08:50:58;10.50;99.90
36990;DHT22;22898;52.102;5.776;2023-03-04T08:53:24;10.60;99.90
36990;DHT22;22898;52.102;5.776;2023-03-04T08:55:52;10.30;99.90
36990;DHT22;22898;52.102;5.776;2023-03-04T08:58:18;10.00;99.90
36990;DHT22;22898;52.102;5.776;2023-03-04T09:00:45;10.50;99.90
36990;DHT22;22898;52.102;5.776;2023-03-04T09:03:13;10.40;99.90
36990;DHT22;22898;52.102;5.776;2023-03-04T09:05:39;9.90;99.90
36990;DHT22;22898;52.102;5.776;2023-03-04T09:08:05;9.90;99.90
36990;DHT22;22898;52.102;5.776;2023-03-04T09:10:31;9.80;99.90
36990;DHT22;22898;52.102;5.776;2023-03-04T09:12:57;9.60;99.90
36990;DHT22;22898;52.102;5.776;2023-03-04T09:15:22;9.80;99.90
36990;DHT22;22898;52.102;5.776;2023-03-04T09:17:48;9.80;99.90
36990;DHT22;22898;52.102;5.776;2023-03-04T09:20:13;10.00;99.90
36990;DHT22;22898;52.102;5.776;2023-03-04T09:22:40;10.20;99.90
36990;DHT22;22898;52.102;5.776;2023-03-04T09:25:06;10.30;99.90
36990;DHT22;22898;52.102;5.776;2023-03-04T09:27:32;10.20;99.90
36990;DHT22;22898;52.102;5.776;2023-03-04T09:29:58;10.50;99.90
36990;DHT22;22898;52.102;5.776;2023-03-04T09:32:25;10.70;99.90
36990;DHT22;22898;52.102;5.776;2023-03-04T09:34:53;10.60;99.90
36990;DHT22;22898;52.102;5.776;2023-03-04T09:37:20;10.50;99.90
36990;DHT22;22898;52.102;5.776;2023-03-04T09:39:46;10.60;99.90
36990;DHT22;22898;52.102;5.776;2023-03-04T09:42:24;10.50;99.90
36990;DHT22;22898;52.102;5.776;2023-03-04T09:44:51;10.70;99.90
36990;DHT22;22898;52.102;5.776;2023-03-04T09:47:21;11.00;99.90
36990;DHT22;22898;52.102;5.776;2023-03-04T09:50:08;11.00;99.90
36990;DHT22;22898;52.102;5.776;2023-03-04T10:00:46;10.90;99.90
36990;DHT22;22898;52.102;5.776;2023-03-04T10:03:26;10.90;99.90
36990;DHT22;22898;52.102;5.776;2023-03-04T10:06:01;10.80;99.90
36990;DHT22;22898;52.102;5.776;2023-03-04T10:08:59;11.10;99.90
36990;DHT22;22898;52.102;5.776;2023-03-04T10:11:44;10.80;99.90
36990;DHT22;22898;52.102;5.776;2023-03-04T10:16:48;10.60;99.90
36990;DHT22;22898;52.102;5.776;2023-03-04T10:22:43;10.00;99.90
36990;DHT22;22898;52.102;5.776;2023-03-04T10:25:21;9.70;99.90
36990;DHT22;22898;52.102;5.776;2023-03-04T10:27:59;10.00;99.90
36990;DHT22;22898;52.102;5.776;2023-03-04T10:33:15;10.30;99.90
36990;DHT22;22898;52.102;5.776;2023-03-04T10:35:45;10.10;99.90
36990;DHT22;22898;52.102;5.776;2023-03-04T10:38:13;10.20;99.90
36990;DHT22;22898;52.102;5.776;2023-03-04T10:40:41;10.90;99.90
36990;DHT22;22898;52.102;5.776;2023-03-04T10:43:18;11.00;99.90
36990;DHT22;22898;52.102;5.776;2023-03-04T10:45:45;11.00;99.90
36990;DHT22;22898;52.102;5.776;2023-03-04T10:48:29;11.00;99.90
36990;DHT22;22898;52.102;5.776;2023-03-04T10:53:41;11.10;99.90
36990;DHT22;22898;52.102;5.776;2023-03-04T10:56:36;10.70;99.90
36990;DHT22;22898;52.102;5.776;2023-03-04T11:02:31;10.40;99.90
36990;DHT22;22898;52.102;5.776;2023-03-04T11:05:21;10.10;99.90
36990;DHT22;22898;52.102;5.776;2023-03-04T11:07:52;10.00;99.90
36990;DHT22;22898;52.102;5.776;2023-03-04T11:10:22;10.00;99.90
36990;DHT22;22898;52.102;5.776;2023-03-04T11:15:55;9.90;99.90
36990;DHT22;22898;52.102;5.776;2023-03-04T11:18:33;10.40;99.90
36990;DHT22;22898;52.102;5.776;2023-03-04T11:21:05;11.10;99.90
36990;DHT22;22898;52.102;5.776;2023-03-04T11:23:56;11.50;99.90
36990;DHT22;22898;52.102;5.776;2023-03-04T11:26:45;11.80;99.90
36990;DHT22;22898;52.102;5.776;2023-03-04T11:29:23;11.80;99.90
36990;DHT22;22898;52.102;5.776;2023-03-04T11:32:17;11.60;99.90
36990;DHT22;22898;52.102;5.776;2023-03-04T11:34:49;11.70;99.90
36990;DHT22;22898;52.102;5.776;2023-03-04T11:40:28;10.70;99.90
36990;DHT22;22898;52.102;5.776;2023-03-04T11:43:05;10.80;99.90
36990;DHT22;22898;52.102;5.776;2023-03-04T11:48:32;9.80;99.90
36990;DHT22;22898;52.102;5.776;2023-03-04T11:51:22;9.70;99.90
36990;DHT22;22898;52.102;5.776;2023-03-04T11:54:13;9.80;99.90
36990;DHT22;22898;52.102;5.776;2023-03-04T11:56:49;10.10;99.90
36990;DHT22;22898;52.102;5.776;2023-03-04T12:08:07;11.60;99.90
36990;DHT22;22898;52.102;5.776;2023-03-04T12:11:09;11.50;99.90
36990;DHT22;22898;52.102;5.776;2023-03-04T12:19:40;11.10;99.90
36990;DHT22;22898;52.102;5.776;2023-03-04T12:22:28;11.50;99.90
36990;DHT22;22898;52.102;5.776;2023-03-04T12:25:22;11.30;99.90
36990;DHT22;22898;52.102;5.776;2023-03-04T12:31:06;10.20;99.90
36990;DHT22;22898;52.102;5.776;2023-03-04T12:34:00;10.30;99.90
36990;DHT22;22898;52.102;5.776;2023-03-04T12:39:33;10.40;99.90
36990;DHT22;22898;52.102;5.776;2023-03-04T12:48:23;10.40;99.90
36990;DHT22;22898;52.102;5.776;2023-03-04T12:56:36;11.30;99.90
36990;DHT22;22898;52.102;5.776;2023-03-04T12:59:02;11.30;99.90
36990;DHT22;22898;52.102;5.776;2023-03-04T13:01:38;10.80;99.90
36990;DHT22;22898;52.102;5.776;2023-03-04T13:04:42;11.10;99.90
36990;DHT22;22898;52.102;5.776;2023-03-04T13:07:20;11.50;99.90
36990;DHT22;22898;52.102;5.776;2023-03-04T13:10:00;10.70;99.90
36990;DHT22;22898;52.102;5.776;2023-03-04T13:12:51;11.00;99.90
36990;DHT22;22898;52.102;5.776;2023-03-04T13:15:27;11.00;99.90
36990;DHT22;22898;52.102;5.776;2023-03-04T13:18:01;11.20;99.90
36990;DHT22;22898;52.102;5.776;2023-03-04T13:20:38;11.20;99.80
36990;DHT22;22898;52.102;5.776;2023-03-04T13:25:45;11.70;99.10
36990;DHT22;22898;52.102;5.776;2023-03-04T13:28:18;11.30;99.90
36990;DHT22;22898;52.102;5.776;2023-03-04T13:33:43;11.80;99.30
36990;DHT22;22898;52.102;5.776;2023-03-04T13:36:54;12.60;97.80
36990;DHT22;22898;52.102;5.776;2023-03-04T13:41:55;11.10;99.40
36990;DHT22;22898;52.102;5.776;2023-03-04T13:44:54;10.90;99.20
36990;DHT22;22898;52.102;5.776;2023-03-04T13:47:31;10.50;99.90
36990;DHT22;22898;52.102;5.776;2023-03-04T13:50:58;10.60;99.90
36990;DHT22;22898;52.102;5.776;2023-03-04T13:53:38;10.80;99.50
36990;DHT22;22898;52.102;5.776;2023-03-04T13:56:11;11.60;98.50
36990;DHT22;22898;52.102;5.776;2023-03-04T13:58:43;12.00;97.90
36990;DHT22;22898;52.102;5.776;2023-03-04T14:01:29;11.70;98.30
36990;DHT22;22898;52.102;5.776;2023-03-04T14:04:00;11.80;98.10
36990;DHT22;22898;52.102;5.776;2023-03-04T14:06:29;10.80;99.40
36990;DHT22;22898;52.102;5.776;2023-03-04T14:08:56;10.80;99.50
36990;DHT22;22898;52.102;5.776;2023-03-04T14:11:35;11.10;99.90
36990;DHT22;22898;52.102;5.776;2023-03-04T14:14:10;10.30;99.90
36990;DHT22;22898;52.102;5.776;2023-03-04T14:16:48;10.70;99.90
36990;DHT22;22898;52.102;5.776;2023-03-04T14:19:22;10.80;99.30
36990;DHT22;22898;52.102;5.776;2023-03-04T14:21:50;10.50;99.80
36990;DHT22;22898;52.102;5.776;2023-03-04T14:24:17;11.00;99.00
36990;DHT22;22898;52.102;5.776;2023-03-04T14:26:44;10.80;98.30
36990;DHT22;22898;52.102;5.776;2023-03-04T14:29:29;10.30;97.70
36990;DHT22;22898;52.102;5.776;2023-03-04T14:31:56;9.90;98.00
36990;DHT22;22898;52.102;5.776;2023-03-04T14:34:29;10.10;97.80
36990;DHT22;22898;52.102;5.776;2023-03-04T14:37:00;10.50;97.40
36990;DHT22;22898;52.102;5.776;2023-03-04T14:39:29;10.70;97.50
36990;DHT22;22898;52.102;5.776;2023-03-04T14:42:00;11.10;96.80
36990;DHT22;22898;52.102;5.776;2023-03-04T14:44:34;11.50;96.80
36990;DHT22;22898;52.102;5.776;2023-03-04T14:50:13;10.80;96.90
36990;DHT22;22898;52.102;5.776;2023-03-04T14:52:43;10.50;97.20
36990;DHT22;22898;52.102;5.776;2023-03-04T14:55:21;10.50;97.30
36990;DHT22;22898;52.102;5.776;2023-03-04T14:58:08;10.30;97.70
36990;DHT22;22898;52.102;5.776;2023-03-04T15:00:37;11.10;96.50
36990;DHT22;22898;52.102;5.776;2023-03-04T15:03:19;10.80;96.60
36990;DHT22;22898;52.102;5.776;2023-03-04T15:05:46;10.30;97.40
36990;DHT22;22898;52.102;5.776;2023-03-04T15:08:36;10.00;97.70
36990;DHT22;22898;52.102;5.776;2023-03-04T15:11:05;9.80;98.50
36990;DHT22;22898;52.102;5.776;2023-03-04T15:13:46;10.00;98.80
36990;DHT22;22898;52.102;5.776;2023-03-04T15:16:17;9.90;98.60
36990;DHT22;22898;52.102;5.776;2023-03-04T15:19:30;10.10;98.80
36990;DHT22;22898;52.102;5.776;2023-03-04T15:22:06;10.70;97.90
36990;DHT22;22898;52.102;5.776;2023-03-04T15:24:33;10.40;99.00
36990;DHT22;22898;52.102;5.776;2023-03-04T15:26:59;9.40;99.90
36990;DHT22;22898;52.102;5.776;2023-03-04T15:29:24;9.80;99.90
36990;DHT22;22898;52.102;5.776;2023-03-04T15:31:50;10.50;99.90
36990;DHT22;22898;52.102;5.776;2023-03-04T15:34:18;10.60;99.50
36990;DHT22;22898;52.102;5.776;2023-03-04T15:36:51;10.20;99.50
36990;DHT22;22898;52.102;5.776;2023-03-04T15:39:18;10.60;99.20
36990;DHT22;22898;52.102;5.776;2023-03-04T15:41:45;10.20;99.80
36990;DHT22;22898;52.102;5.776;2023-03-04T15:44:13;10.10;99.90
36990;DHT22;22898;52.102;5.776;2023-03-04T15:46:38;10.40;99.70
36990;DHT22;22898;52.102;5.776;2023-03-04T15:49:04;10.60;99.30
36990;DHT22;22898;52.102;5.776;2023-03-04T15:51:32;10.30;98.80
36990;DHT22;22898;52.102;5.776;2023-03-04T15:53:59;9.90;99.40
36990;DHT22;22898;52.102;5.776;2023-03-04T15:56:32;10.30;98.90
36990;DHT22;22898;52.102;5.776;2023-03-04T15:59:09;9.90;99.30
36990;DHT22;22898;52.102;5.776;2023-03-04T16:01:36;9.80;98.80
36990;DHT22;22898;52.102;5.776;2023-03-04T16:04:02;9.70;98.70
36990;DHT22;22898;52.102;5.776;2023-03-04T16:06:29;9.90;98.60
36990;DHT22;22898;52.102;5.776;2023-03-04T16:08:57;10.20;97.80
36990;DHT22;22898;52.102;5.776;2023-03-04T16:11:26;10.60;97.30
36990;DHT22;22898;52.102;5.776;2023-03-04T16:13:54;11.30;96.60
36990;DHT22;22898;52.102;5.776;2023-03-04T16:16:23;11.10;96.80
36990;DHT22;22898;52.102;5.776;2023-03-04T16:18:48;10.30;98.20
36990;DHT22;22898;52.102;5.776;2023-03-04T16:21:19;9.80;99.30
36990;DHT22;22898;52.102;5.776;2023-03-04T16:23:47;9.90;99.50
36990;DHT22;22898;52.102;5.776;2023-03-04T16:26:17;10.00;99.40
36990;DHT22;22898;52.102;5.776;2023-03-04T16:28:45;9.80;99.70
36990;DHT22;22898;52.102;5.776;2023-03-04T16:31:13;9.50;99.90
36990;DHT22;22898;52.102;5.776;2023-03-04T16:33:40;9.00;99.90
36990;DHT22;22898;52.102;5.776;2023-03-04T16:36:25;9.00;99.90
36990;DHT22;22898;52.102;5.776;2023-03-04T16:38:57;8.90;99.90
36990;DHT22;22898;52.102;5.776;2023-03-04T16:41:26;8.80;99.90
36990;DHT22;22898;52.102;5.776;2023-03-04T16:43:53;8.40;99.90
36990;DHT22;22898;52.102;5.776;2023-03-04T16:46:19;8.60;99.90
36990;DHT22;22898;52.102;5.776;2023-03-04T16:48:46;8.70;99.90
36990;DHT22;22898;52.102;5.776;2023-03-04T16:51:19;9.20;99.90
36990;DHT22;22898;52.102;5.776;2023-03-04T16:53:53;9.30;99.90
36990;DHT22;22898;52.102;5.776;2023-03-04T16:56:21;9.70;99.40
36990;DHT22;22898;52.102;5.776;2023-03-04T16:58:48;9.30;99.90
36990;DHT22;22898;52.102;5.776;2023-03-04T17:01:37;9.70;99.90
36990;DHT22;22898;52.102;5.776;2023-03-04T17:04:06;10.00;99.30
36990;DHT22;22898;52.102;5.776;2023-03-04T17:06:31;10.20;99.00
36990;DHT22;22898;52.102;5.776;2023-03-04T17:09:00;10.40;99.10
36990;DHT22;22898;52.102;5.776;2023-03-04T17:11:26;10.50;98.90
36990;DHT22;22898;52.102;5.776;2023-03-04T17:13:53;10.60;99.00